Time;durP1;ratioP1;P1;durP2;ratioP2;P2;SDS_P1;SDS_P2;PMS_P1;PMS_P2;Temp;Humidity;BMP_temperature;BMP_pressure;BME280_temperature;BME280_humidity;BME280_pressure;Samples;Min_cycle;Max_cycle;Signal;HPM_P1;HPM_P2
2023/12/29 00:01:11;;;;;;;2.35;1.20;;;;;;;;;;10395766;28;20033;-74
2023/12/29 00:06:14;;;;;;;2.85;1.42;;;;;;;;;;10399917;28;20069;-74
2023/12/29 00:11:19;;;;;;;1.30;1.20;;;;;;;;;;10386498;28;20045;-74
2023/12/29 00:16:23;;;;;;;2.78;1.40;;;;;;;;;;10389579;28;20052;-74
2023/12/29 00:21:26;;;;;;;5.55;1.10;;;;;;;;;;10373050;28;20052;-74
2023/12/29 00:26:30;;;;;;;1.60;1.30;;;;;;;;;;10402570;28;20041;-74
2023/12/29 00:31:35;;;;;;;3.22;1.70;;;;;;;;;;10399167;28;20093;-74
2023/12/29 00:36:38;;;;;;;4.85;1.92;;;;;;;;;;10376920;28;20041;-74
2023/12/29 00:41:41;;;;;;;2.53;1.20;;;;;;;;;;10370422;28;20075;-74
2023/12/29 00:46:46;;;;;;;2.47;1.38;;;;;;;;;;10399545;28;20045;-74
2023/12/29 00:51:50;;;;;;;3.03;1.60;;;;;;;;;;10377526;28;20087;-74
2023/12/29 00:56:54;;;;;;;4.00;1.40;;;;;;;;;;10377322;28;20041;-74
2023/12/29 01:01:59;;;;;;;3.25;1.65;;;;;;;;;;10391830;28;20041;-74
2023/12/29 01:07:04;;;;;;;3.53;1.40;;;;;;;;;;10397467;28;20044;-73
2023/12/29 01:12:08;;;;;;;6.05;1.63;;;;;;;;;;10370475;28;20049;-74
2023/12/29 01:17:12;;;;;;;5.63;1.80;;;;;;;;;;10394562;28;20482;-74
2023/12/29 01:22:16;;;;;;;4.38;1.70;;;;;;;;;;10378319;28;20052;-74
2023/12/29 01:27:19;;;;;;;6.35;1.52;;;;;;;;;;10397460;28;20461;-74
2023/12/29 01:32:24;;;;;;;4.55;1.60;;;;;;;;;;10394238;28;20056;-74
2023/12/29 01:37:27;;;;;;;2.95;1.40;;;;;;;;;;10394554;28;20049;-74
2023/12/29 01:42:30;;;;;;;3.40;1.42;;;;;;;;;;10403021;28;20770;-74
2023/12/29 01:47:35;;;;;;;2.63;1.52;;;;;;;;;;10372487;28;20604;-74
2023/12/29 01:52:38;;;;;;;5.53;1.45;;;;;;;;;;10394562;28;20156;-74
2023/12/29 01:57:42;;;;;;;4.45;1.48;;;;;;;;;;10369080;28;20539;-74
2023/12/29 02:02:47;;;;;;;5.13;1.50;;;;;;;;;;10398354;28;20041;-74
2023/12/29 02:07:53;;;;;;;5.63;1.80;;;;;;;;;;10381728;28;20063;-74
2023/12/29 02:13:00;;;;;;;2.80;1.38;;;;;;;;;;10408332;28;20106;-74
2023/12/29 02:18:07;;;;;;;4.88;1.60;;;;;;;;;;10378097;28;20056;-74
2023/12/29 02:23:10;;;;;;;3.75;1.40;;;;;;;;;;10380752;28;20541;-74
2023/12/29 02:28:20;;;;;;;6.63;1.60;;;;;;;;;;10389034;28;20521;-74
2023/12/29 02:33:25;;;;;;;5.25;1.60;;;;;;;;;;10398422;28;20075;-74
2023/12/29 02:38:29;;;;;;;4.90;1.50;;;;;;;;;;10402035;28;20050;-74
2023/12/29 02:43:34;;;;;;;4.85;1.65;;;;;;;;;;10380060;28;20080;-74
2023/12/29 02:48:37;;;;;;;4.45;1.38;;;;;;;;;;10392961;28;20577;-74
2023/12/29 02:53:40;;;;;;;3.55;1.50;;;;;;;;;;10399373;28;20133;-74
2023/12/29 02:58:48;;;;;;;3.42;1.38;;;;;;;;;;10383315;28;20051;-74
2023/12/29 03:03:51;;;;;;;5.20;1.33;;;;;;;;;;10386363;28;20037;-74
2023/12/29 03:08:54;;;;;;;3.03;1.40;;;;;;;;;;10373043;28;20042;-74
2023/12/29 03:13:59;;;;;;;3.10;1.20;;;;;;;;;;10380966;28;20052;-74
2023/12/29 03:19:02;;;;;;;2.88;1.40;;;;;;;;;;10409748;23;20042;-74
2023/12/29 03:24:06;;;;;;;4.78;1.48;;;;;;;;;;10401537;28;20045;-75
2023/12/29 03:29:10;;;;;;;2.78;1.20;;;;;;;;;;10355525;28;20038;-75
2023/12/29 03:34:14;;;;;;;3.85;1.77;;;;;;;;;;10349343;28;20046;-75
2023/12/29 03:39:17;;;;;;;3.63;1.17;;;;;;;;;;10314342;28;20578;-75
2023/12/29 03:44:22;;;;;;;4.20;1.60;;;;;;;;;;10340462;28;20511;-74
2023/12/29 03:49:25;;;;;;;2.83;1.13;;;;;;;;;;10348671;28;20049;-75
2023/12/29 03:54:28;;;;;;;1.40;1.05;;;;;;;;;;10352261;28;20491;-74
2023/12/29 03:59:33;;;;;;;4.35;1.55;;;;;;;;;;10344882;28;20459;-75
2023/12/29 04:04:38;;;;;;;3.30;1.17;;;;;;;;;;10344884;28;20133;-75
2023/12/29 04:09:42;;;;;;;4.38;1.20;;;;;;;;;;10347614;28;20116;-75
2023/12/29 04:14:47;;;;;;;4.75;1.63;;;;;;;;;;10353059;28;20058;-75
2023/12/29 04:19:50;;;;;;;5.43;1.80;;;;;;;;;;10346997;28;20053;-75
2023/12/29 04:24:54;;;;;;;3.10;1.30;;;;;;;;;;10355771;28;20034;-75
2023/12/29 04:29:58;;;;;;;3.50;1.35;;;;;;;;;;10359190;28;20046;-75
2023/12/29 04:35:01;;;;;;;3.88;1.65;;;;;;;;;;10353415;28;20046;-75
2023/12/29 04:40:08;;;;;;;6.75;1.52;;;;;;;;;;10350333;28;20050;-75
2023/12/29 04:45:12;;;;;;;2.85;1.13;;;;;;;;;;10353664;28;20085;-75
2023/12/29 04:50:16;;;;;;;4.07;1.58;;;;;;;;;;10351777;28;20050;-75
2023/12/29 04:55:20;;;;;;;3.35;1.58;;;;;;;;;;10347345;28;20069;-75
2023/12/29 05:00:24;;;;;;;3.25;1.10;;;;;;;;;;10345263;28;20069;-75
2023/12/29 05:05:28;;;;;;;2.97;1.20;;;;;;;;;;10353528;28;20514;-75
2023/12/29 05:10:34;;;;;;;3.72;1.02;;;;;;;;;;10356672;28;20495;-75
2023/12/29 05:15:39;;;;;;;2.95;1.13;;;;;;;;;;10354325;28;20052;-74
2023/12/29 05:20:43;;;;;;;4.57;1.60;;;;;;;;;;10342552;28;20428;-74
2023/12/29 05:25:46;;;;;;;5.75;1.40;;;;;;;;;;10358442;28;20523;-75
2023/12/29 05:30:50;;;;;;;4.82;1.45;;;;;;;;;;10351068;28;20073;-75
2023/12/29 05:35:54;;;;;;;4.60;1.45;;;;;;;;;;10361519;28;20092;-75
2023/12/29 05:40:57;;;;;;;4.70;1.92;;;;;;;;;;10348246;28;20061;-75
2023/12/29 05:46:02;;;;;;;3.25;1.40;;;;;;;;;;10355484;28;20057;-75
2023/12/29 05:51:08;;;;;;;3.08;1.15;;;;;;;;;;10355393;28;20038;-75
2023/12/29 05:56:14;;;;;;;3.95;1.40;;;;;;;;;;10352532;28;20526;-75
2023/12/29 06:01:18;;;;;;;4.07;1.67;;;;;;;;;;10358929;28;20042;-75
2023/12/29 06:06:22;;;;;;;2.05;1.23;;;;;;;;;;10357017;28;20515;-75
2023/12/29 06:11:25;;;;;;;6.50;1.42;;;;;;;;;;10354477;28;20046;-74
2023/12/29 06:16:30;;;;;;;2.33;1.15;;;;;;;;;;10347221;28;20045;-74
2023/12/29 06:21:33;;;;;;;2.97;1.08;;;;;;;;;;10347636;28;20035;-74
2023/12/29 06:26:41;;;;;;;3.05;1.27;;;;;;;;;;10348737;28;20050;-74
2023/12/29 06:31:46;;;;;;;3.20;1.38;;;;;;;;;;10351219;28;20047;-74
2023/12/29 06:36:49;;;;;;;1.77;0.98;;;;;;;;;;10351012;28;20060;-74
2023/12/29 06:41:52;;;;;;;3.15;0.90;;;;;;;;;;10350910;28;20112;-75
2023/12/29 06:46:57;;;;;;;2.78;1.10;;;;;;;;;;10353127;28;20054;-74
2023/12/29 06:52:00;;;;;;;4.00;1.10;;;;;;;;;;10349425;28;20053;-74
2023/12/29 06:57:03;;;;;;;4.85;1.02;;;;;;;;;;10362079;28;20053;-74
2023/12/29 07:02:08;;;;;;;5.32;1.48;;;;;;;;;;10352419;28;20207;-74
2023/12/29 07:07:11;;;;;;;1.92;1.00;;;;;;;;;;10354189;28;20045;-74
2023/12/29 07:12:15;;;;;;;2.65;1.10;;;;;;;;;;10361314;28;20117;-74
2023/12/29 07:17:20;;;;;;;3.65;0.95;;;;;;;;;;10351776;28;20053;-74
2023/12/29 07:22:23;;;;;;;1.40;0.90;;;;;;;;;;10360907;28;20050;-74
2023/12/29 07:27:26;;;;;;;5.00;1.13;;;;;;;;;;10356930;28;20046;-74
2023/12/29 07:32:31;;;;;;;3.03;1.20;;;;;;;;;;10344355;28;20053;-74
2023/12/29 07:37:34;;;;;;;2.72;1.10;;;;;;;;;;10350317;28;20471;-74
2023/12/29 07:42:37;;;;;;;6.30;1.50;;;;;;;;;;10355917;28;20415;-75
2023/12/29 07:47:42;;;;;;;3.20;1.15;;;;;;;;;;10344999;28;20170;-74
2023/12/29 07:52:45;;;;;;;3.65;1.13;;;;;;;;;;10351136;28;20069;-74
2023/12/29 07:57:49;;;;;;;2.58;1.20;;;;;;;;;;10352664;28;20059;-74
2023/12/29 08:02:53;;;;;;;5.32;1.10;;;;;;;;;;10365195;28;20044;-74
2023/12/29 08:07:56;;;;;;;3.95;1.20;;;;;;;;;;10350339;28;20056;-74
2023/12/29 08:13:00;;;;;;;1.65;1.00;;;;;;;;;;10351213;28;20100;-74
2023/12/29 08:18:05;;;;;;;2.03;0.75;;;;;;;;;;10352220;28;20112;-74
2023/12/29 08:23:08;;;;;;;2.05;0.77;;;;;;;;;;10357017;28;20053;-74
2023/12/29 08:28:11;;;;;;;1.10;0.70;;;;;;;;;;10357329;28;20046;-74
2023/12/29 08:33:16;;;;;;;1.10;0.60;;;;;;;;;;10360645;28;20040;-74
2023/12/29 08:38:19;;;;;;;2.58;0.90;;;;;;;;;;10362691;28;20050;-74
2023/12/29 08:43:22;;;;;;;2.78;0.90;;;;;;;;;;10351877;28;20046;-74
2023/12/29 08:48:27;;;;;;;2.75;0.98;;;;;;;;;;10350700;28;20043;-74
2023/12/29 08:53:35;;;;;;;1.98;0.80;;;;;;;;;;10348173;28;20100;-74
2023/12/29 08:58:38;;;;;;;3.65;1.00;;;;;;;;;;10352798;28;20581;-74
2023/12/29 09:03:43;;;;;;;1.05;0.50;;;;;;;;;;10352307;28;20624;-74
2023/12/29 09:08:46;;;;;;;1.20;0.60;;;;;;;;;;10352646;28;20121;-74
2023/12/29 09:13:49;;;;;;;2.75;0.70;;;;;;;;;;10348416;28;20054;-74
2023/12/29 09:18:54;;;;;;;2.25;0.70;;;;;;;;;;10434348;23;20044;-73
2023/12/29 09:23:58;;;;;;;2.25;1.02;;;;;;;;;;10480325;28;20040;-73
2023/12/29 09:29:02;;;;;;;2.25;1.00;;;;;;;;;;10478551;28;20033;-74
2023/12/29 09:34:06;;;;;;;3.22;0.90;;;;;;;;;;10482069;28;20052;-74
2023/12/29 09:39:09;;;;;;;2.53;0.93;;;;;;;;;;10460953;28;20071;-74
2023/12/29 09:44:15;;;;;;;1.73;0.82;;;;;;;;;;10478406;28;20293;-74
2023/12/29 09:49:20;;;;;;;1.42;0.70;;;;;;;;;;10482743;28;20421;-74
2023/12/29 09:54:24;;;;;;;2.00;0.80;;;;;;;;;;10475077;28;20043;-73
2023/12/29 09:59:28;;;;;;;2.97;0.73;;;;;;;;;;10475800;28;20044;-73
2023/12/29 10:04:36;;;;;;;1.35;0.50;;;;;;;;;;10479588;28;20044;-74
2023/12/29 10:09:41;;;;;;;0.93;0.55;;;;;;;;;;10470209;28;20102;-73
2023/12/29 10:14:49;;;;;;;1.58;0.60;;;;;;;;;;10478567;28;20043;-74
2023/12/29 10:20:04;;;;;;;2.65;0.70;;;;;;;;;;10478674;28;20045;-73
2023/12/29 10:25:09;;;;;;;1.42;0.52;;;;;;;;;;10477956;28;20102;-73
2023/12/29 10:30:13;;;;;;;0.40;0.40;;;;;;;;;;10485436;28;20047;-73
2023/12/29 10:35:22;;;;;;;0.47;0.43;;;;;;;;;;10484563;28;20098;-73
2023/12/29 10:40:28;;;;;;;3.03;0.88;;;;;;;;;;10483098;28;20591;-73
2023/12/29 10:45:31;;;;;;;1.20;0.52;;;;;;;;;;10487620;28;20119;-73
2023/12/29 10:50:44;;;;;;;0.88;0.45;;;;;;;;;;10469644;28;20417;-73
2023/12/29 10:55:48;;;;;;;3.03;0.70;;;;;;;;;;10485565;28;20108;-73
2023/12/29 11:00:52;;;;;;;3.25;0.73;;;;;;;;;;10483579;28;20391;-73
2023/12/29 11:06:01;;;;;;;0.93;0.60;;;;;;;;;;10485398;28;20045;-73
2023/12/29 11:11:05;;;;;;;1.48;0.70;;;;;;;;;;10484451;28;20047;-73
2023/12/29 11:16:09;;;;;;;1.42;0.60;;;;;;;;;;10489607;28;20056;-74
2023/12/29 11:21:14;;;;;;;2.00;0.95;;;;;;;;;;10489226;28;20078;-74
2023/12/29 11:26:17;;;;;;;1.10;0.55;;;;;;;;;;10486163;28;20044;-74
2023/12/29 11:31:21;;;;;;;0.65;0.43;;;;;;;;;;10481760;28;20047;-74
2023/12/29 11:36:32;;;;;;;0.93;0.50;;;;;;;;;;10484795;28;20123;-74
2023/12/29 11:41:39;;;;;;;1.20;0.50;;;;;;;;;;10478621;28;20048;-74
2023/12/29 11:46:44;;;;;;;0.63;0.50;;;;;;;;;;10482590;28;20142;-74
2023/12/29 11:51:50;;;;;;;1.27;0.50;;;;;;;;;;10475123;28;20044;-74
2023/12/29 11:56:54;;;;;;;1.02;0.45;;;;;;;;;;10485215;28;20037;-74
2023/12/29 12:02:00;;;;;;;0.73;0.47;;;;;;;;;;10482372;28;20047;-74
2023/12/29 12:07:06;;;;;;;0.85;0.45;;;;;;;;;;10464961;28;20049;-74
2023/12/29 12:12:10;;;;;;;1.35;0.60;;;;;;;;;;10481077;28;20049;-74
2023/12/29 12:17:13;;;;;;;1.60;0.50;;;;;;;;;;10485798;28;20176;-74
2023/12/29 12:22:20;;;;;;;2.05;0.50;;;;;;;;;;10460544;28;20048;-74
2023/12/29 12:27:25;;;;;;;0.50;0.50;;;;;;;;;;10481235;28;20049;-74
2023/12/29 12:32:29;;;;;;;1.13;0.60;;;;;;;;;;10482113;28;20139;-74
2023/12/29 12:37:34;;;;;;;1.25;0.57;;;;;;;;;;10481346;28;20040;-74
2023/12/29 12:42:40;;;;;;;0.30;0.30;;;;;;;;;;10484004;28;20135;-74
2023/12/29 12:47:46;;;;;;;0.40;0.40;;;;;;;;;;10487053;28;20037;-74
2023/12/29 12:52:52;;;;;;;0.80;0.40;;;;;;;;;;10481302;28;20075;-74
2023/12/29 12:57:56;;;;;;;2.47;0.47;;;;;;;;;;10484094;28;20561;-74
2023/12/29 13:03:01;;;;;;;0.55;0.38;;;;;;;;;;10477815;28;20307;-74
2023/12/29 13:08:07;;;;;;;1.17;0.50;;;;;;;;;;10483361;28;20045;-74
2023/12/29 13:13:10;;;;;;;1.33;0.43;;;;;;;;;;10476472;28;20055;-74
2023/12/29 13:18:15;;;;;;;0.98;0.40;;;;;;;;;;10486097;28;20048;-74
2023/12/29 13:23:19;;;;;;;0.50;0.30;;;;;;;;;;10481437;28;20063;-74
2023/12/29 13:28:23;;;;;;;0.47;0.40;;;;;;;;;;10460493;28;20049;-74
2023/12/29 13:33:32;;;;;;;0.70;0.40;;;;;;;;;;10475021;28;20534;-74
2023/12/29 13:38:43;;;;;;;0.43;0.38;;;;;;;;;;10478331;28;20117;-74
2023/12/29 13:43:48;;;;;;;0.82;0.43;;;;;;;;;;10481593;28;20043;-74
2023/12/29 13:48:53;;;;;;;1.00;0.40;;;;;;;;;;10480099;28;20508;-74
2023/12/29 13:54:01;;;;;;;1.55;0.55;;;;;;;;;;10479175;28;20094;-74
2023/12/29 13:59:07;;;;;;;1.08;0.40;;;;;;;;;;10479182;28;20513;-74
2023/12/29 14:04:12;;;;;;;0.23;0.20;;;;;;;;;;10477468;28;20137;-74
2023/12/29 14:09:18;;;;;;;0.30;0.20;;;;;;;;;;10480207;28;20045;-74
2023/12/29 14:14:25;;;;;;;2.38;0.80;;;;;;;;;;10480558;28;20640;-74
2023/12/29 14:19:36;;;;;;;0.52;0.40;;;;;;;;;;10480640;28;20036;-74
2023/12/29 14:24:40;;;;;;;3.72;0.85;;;;;;;;;;10480528;28;20195;-74
2023/12/29 14:29:44;;;;;;;1.17;0.45;;;;;;;;;;10480740;28;20059;-74
2023/12/29 14:34:52;;;;;;;3.50;0.80;;;;;;;;;;10455830;28;20068;-74
2023/12/29 14:39:57;;;;;;;0.73;0.60;;;;;;;;;;10478391;28;20055;-74
2023/12/29 14:45:00;;;;;;;1.45;0.60;;;;;;;;;;10473862;28;20059;-74
2023/12/29 14:50:04;;;;;;;2.38;0.55;;;;;;;;;;10480426;28;20047;-74
2023/12/29 14:55:09;;;;;;;1.77;0.88;;;;;;;;;;10452433;28;20045;-73
2023/12/29 15:00:14;;;;;;;2.33;0.80;;;;;;;;;;10475532;28;20045;-74
2023/12/29 15:05:17;;;;;;;1.20;0.50;;;;;;;;;;10460500;28;20532;-74
2023/12/29 15:10:22;;;;;;;2.03;0.60;;;;;;;;;;10473905;28;20052;-74
2023/12/29 15:15:25;;;;;;;0.77;0.50;;;;;;;;;;10485344;28;20135;-74
2023/12/29 15:20:29;;;;;;;1.05;0.80;;;;;;;;;;10458124;22;20053;-75
2023/12/29 15:25:34;;;;;;;1.48;0.73;;;;;;;;;;10440575;28;20060;-72
2023/12/29 15:30:37;;;;;;;0.60;0.40;;;;;;;;;;10403909;28;20046;-72
2023/12/29 15:35:41;;;;;;;2.63;0.75;;;;;;;;;;10401108;28;20480;-72
2023/12/29 15:40:45;;;;;;;0.57;0.52;;;;;;;;;;10401290;28;20049;-72
2023/12/29 15:45:49;;;;;;;1.38;0.63;;;;;;;;;;10398180;28;20056;-72
2023/12/29 15:50:52;;;;;;;2.72;1.08;;;;;;;;;;10402908;28;20406;-72
2023/12/29 15:55:58;;;;;;;1.40;0.60;;;;;;;;;;10406550;28;20049;-72
2023/12/29 16:01:02;;;;;;;;;;;;;;;;;;10401487;28;20042;-72
2023/12/29 16:06:05;;;;;;;1.25;0.50;;;;;;;;;;10403447;28;20364;-73
2023/12/29 16:11:18;;;;;;;1.15;0.50;;;;;;;;;;10402078;28;20054;-73
2023/12/29 16:16:27;;;;;;;1.92;1.10;;;;;;;;;;10400677;28;20063;-73
2023/12/29 16:21:37;;;;;;;2.05;1.05;;;;;;;;;;10400238;28;20124;-72
2023/12/29 16:26:42;;;;;;;1.75;0.85;;;;;;;;;;10398893;28;20037;-73
2023/12/29 16:31:47;;;;;;;0.70;0.57;;;;;;;;;;10394656;28;20522;-73
2023/12/29 16:36:58;;;;;;;1.00;0.60;;;;;;;;;;10397154;28;20040;-73
2023/12/29 16:42:03;;;;;;;0.70;0.47;;;;;;;;;;10389616;28;20065;-73
2023/12/29 16:47:06;;;;;;;0.85;0.68;;;;;;;;;;10395298;28;20056;-73
2023/12/29 16:52:10;;;;;;;1.00;0.68;;;;;;;;;;10395990;28;20045;-72
2023/12/29 16:57:14;;;;;;;0.60;0.60;;;;;;;;;;10398429;28;20618;-73
2023/12/29 17:02:18;;;;;;;1.02;0.60;;;;;;;;;;10398454;28;20046;-72
2023/12/29 17:07:21;;;;;;;1.48;0.70;;;;;;;;;;10380577;28;20410;-72
2023/12/29 17:12:52;;;;;;;1.38;0.50;;;;;;;;;;10399534;28;20104;-72
2023/12/29 17:17:56;;;;;;;1.58;0.73;;;;;;;;;;10393782;28;20136;-73
2023/12/29 17:22:59;;;;;;;1.00;0.60;;;;;;;;;;10394716;28;20144;-73
2023/12/29 17:28:04;;;;;;;1.73;0.80;;;;;;;;;;10395611;28;20049;-72
2023/12/29 17:33:07;;;;;;;1.63;0.80;;;;;;;;;;10391763;28;20099;-73
2023/12/29 17:38:10;;;;;;;1.27;0.70;;;;;;;;;;10397491;28;20054;-72
2023/12/29 17:43:15;;;;;;;1.85;0.98;;;;;;;;;;10391401;28;20037;-72
2023/12/29 17:48:18;;;;;;;1.55;0.60;;;;;;;;;;10392787;28;20049;-72
2023/12/29 17:53:22;;;;;;;2.75;0.70;;;;;;;;;;10386113;28;20801;-72
2023/12/29 17:58:26;;;;;;;1.55;0.80;;;;;;;;;;10396462;28;20238;-73
2023/12/29 18:03:29;;;;;;;1.40;0.52;;;;;;;;;;10393007;28;20044;-72
2023/12/29 18:08:55;;;;;;;1.73;0.60;;;;;;;;;;10393935;28;20056;-73
2023/12/29 18:14:00;;;;;;;2.13;0.70;;;;;;;;;;10392737;28;20042;-73
2023/12/29 18:19:03;;;;;;;1.95;0.70;;;;;;;;;;10389394;28;20541;-73
2023/12/29 18:24:07;;;;;;;0.90;0.77;;;;;;;;;;10395525;28;20108;-73
2023/12/29 18:29:13;;;;;;;1.48;0.55;;;;;;;;;;10387890;28;20511;-73
2023/12/29 18:34:16;;;;;;;0.52;0.40;;;;;;;;;;10393500;28;20537;-73
2023/12/29 18:39:19;;;;;;;0.95;0.60;;;;;;;;;;10393378;28;20107;-73
2023/12/29 18:44:24;;;;;;;1.30;0.60;;;;;;;;;;10394164;28;20032;-73
2023/12/29 18:49:27;;;;;;;1.20;0.45;;;;;;;;;;10391817;28;20240;-73
2023/12/29 18:54:32;;;;;;;1.85;0.55;;;;;;;;;;10406150;28;20065;-73
2023/12/29 18:59:37;;;;;;;0.63;0.50;;;;;;;;;;10399598;28;20100;-74
2023/12/29 19:04:40;;;;;;;0.60;0.43;;;;;;;;;;10401134;28;20091;-73
2023/12/29 19:09:44;;;;;;;0.47;0.35;;;;;;;;;;10392322;28;20044;-73
2023/12/29 19:14:52;;;;;;;1.48;0.52;;;;;;;;;;10393653;28;20541;-74
2023/12/29 19:19:55;;;;;;;0.47;0.47;;;;;;;;;;10394576;28;20071;-74
2023/12/29 19:24:59;;;;;;;0.77;0.47;;;;;;;;;;10401425;28;20038;-74
2023/12/29 19:30:04;;;;;;;0.30;0.30;;;;;;;;;;10390257;28;20508;-74
2023/12/29 19:35:08;;;;;;;1.90;0.98;;;;;;;;;;10393334;28;20495;-74
2023/12/29 19:40:12;;;;;;;0.98;0.60;;;;;;;;;;10393686;28;20041;-73
2023/12/29 19:45:31;;;;;;;0.40;0.40;;;;;;;;;;10395473;28;20119;-73
2023/12/29 19:50:40;;;;;;;0.60;0.43;;;;;;;;;;10404087;28;20044;-73
2023/12/29 19:55:47;;;;;;;1.30;0.63;;;;;;;;;;10402580;28;20672;-73
2023/12/29 20:00:54;;;;;;;0.85;0.50;;;;;;;;;;10401043;28;20276;-74
2023/12/29 20:05:57;;;;;;;0.40;0.33;;;;;;;;;;10398395;28;20042;-74
2023/12/29 20:11:23;;;;;;;0.43;0.30;;;;;;;;;;10394613;28;20095;-74
2023/12/29 20:16:28;;;;;;;0.57;0.40;;;;;;;;;;10393852;28;20546;-74
2023/12/29 20:21:32;;;;;;;0.65;0.38;;;;;;;;;;10379291;28;20524;-74
2023/12/29 20:26:36;;;;;;;0.60;0.45;;;;;;;;;;10396942;28;20045;-74
2023/12/29 20:31:40;;;;;;;0.85;0.43;;;;;;;;;;10395324;28;20435;-74
2023/12/29 20:36:44;;;;;;;1.05;0.60;;;;;;;;;;10399723;28;20038;-74
2023/12/29 20:41:47;;;;;;;1.13;0.70;;;;;;;;;;10398589;28;20845;-74
2023/12/29 20:46:52;;;;;;;0.70;0.57;;;;;;;;;;10398780;28;20561;-74
2023/12/29 20:51:55;;;;;;;0.90;0.40;;;;;;;;;;10398110;28;20059;-74
2023/12/29 20:56:58;;;;;;;0.95;0.60;;;;;;;;;;10398761;28;20119;-74
2023/12/29 21:02:04;;;;;;;0.52;0.50;;;;;;;;;;10396137;28;20049;-74
2023/12/29 21:07:08;;;;;;;1.50;0.93;;;;;;;;;;10398472;28;20053;-73
2023/12/29 21:12:11;;;;;;;1.50;0.60;;;;;;;;;;10398256;28;20048;-75
2023/12/29 21:17:16;;;;;;;1.20;0.70;;;;;;;;;;10413887;22;24030;-75
2023/12/29 21:22:19;;;;;;;3.10;0.88;;;;;;;;;;10396888;28;20384;-74
2023/12/29 21:27:22;;;;;;;2.45;0.90;;;;;;;;;;10400607;28;20047;-75
2023/12/29 21:32:28;;;;;;;1.35;0.80;;;;;;;;;;10399347;28;20045;-75
2023/12/29 21:37:31;;;;;;;2.67;0.82;;;;;;;;;;10402274;28;20055;-74
2023/12/29 21:42:36;;;;;;;2.75;0.80;;;;;;;;;;10398535;28;20052;-75
2023/12/29 21:47:42;;;;;;;4.10;1.00;;;;;;;;;;10372839;28;20119;-75
2023/12/29 21:52:47;;;;;;;2.60;0.80;;;;;;;;;;10399775;28;20045;-75
2023/12/29 21:57:50;;;;;;;2.70;0.85;;;;;;;;;;10374269;28;20439;-75
2023/12/29 22:02:55;;;;;;;3.20;1.15;;;;;;;;;;10399054;28;20041;-75
2023/12/29 22:07:59;;;;;;;1.45;0.70;;;;;;;;;;10401444;28;20051;-75
2023/12/29 22:13:02;;;;;;;2.10;0.85;;;;;;;;;;10397886;28;20056;-74
2023/12/29 22:18:07;;;;;;;1.10;0.75;;;;;;;;;;10393637;28;20049;-75
2023/12/29 22:23:10;;;;;;;1.50;0.70;;;;;;;;;;10392935;28;20125;-75
2023/12/29 22:28:14;;;;;;;1.63;0.85;;;;;;;;;;10406941;28;20049;-75
2023/12/29 22:33:18;;;;;;;1.23;0.70;;;;;;;;;;10403916;28;20060;-74
2023/12/29 22:38:21;;;;;;;1.23;0.70;;;;;;;;;;10389748;28;20037;-75
2023/12/29 22:43:25;;;;;;;1.85;0.70;;;;;;;;;;10403208;28;20045;-75
2023/12/29 22:48:30;;;;;;;2.72;0.80;;;;;;;;;;10398766;28;20471;-75
2023/12/29 22:53:33;;;;;;;0.93;0.50;;;;;;;;;;10408211;28;20128;-75
2023/12/29 22:58:38;;;;;;;7.45;2.85;;;;;;;;;;10399444;28;20584;-75
2023/12/29 23:03:43;;;;;;;2.88;1.17;;;;;;;;;;10405215;28;20042;-75
2023/12/29 23:08:46;;;;;;;2.00;0.98;;;;;;;;;;10405597;28;20060;-74
2023/12/29 23:13:50;;;;;;;1.85;0.90;;;;;;;;;;10400667;28;20050;-75
2023/12/29 23:18:54;;;;;;;1.45;1.05;;;;;;;;;;10386067;28;20551;-74
2023/12/29 23:23:58;;;;;;;2.95;1.30;;;;;;;;;;10402130;28;20034;-74
2023/12/29 23:29:01;;;;;;;3.22;1.60;;;;;;;;;;10402548;28;20044;-74
2023/12/29 23:34:06;;;;;;;5.40;2.65;;;;;;;;;;10400899;28;20057;-75
2023/12/29 23:39:09;;;;;;;3.13;1.50;;;;;;;;;;10400293;28;20115;-74
2023/12/29 23:44:12;;;;;;;5.68;1.20;;;;;;;;;;10400253;28;20037;-74
2023/12/29 23:49:17;;;;;;;4.18;1.58;;;;;;;;;;10401569;28;20120;-74
2023/12/29 23:54:20;;;;;;;4.38;1.30;;;;;;;;;;10405501;28;20091;-75
2023/12/29 23:59:23;;;;;;;4.18;1.38;;;;;;;;;;10385074;28;20499;-74
